createdAt,value
2017-12-04T00:01:09.238Z,88.60
2017-12-04T00:03:36.886Z,88.50
2017-12-04T00:06:04.591Z,88.60
2017-12-04T00:08:33.027Z,89.80
2017-12-04T00:11:00.686Z,89.70
2017-12-04T00:13:28.357Z,89.40
2017-12-04T00:15:56.144Z,90.00
2017-12-04T00:18:24.587Z,89.20
2017-12-04T00:20:52.234Z,89.20
2017-12-04T00:23:19.891Z,89.10
2017-12-04T00:25:47.508Z,89.70
2017-12-04T00:28:15.137Z,90.00
2017-12-04T00:30:42.864Z,89.20
2017-12-04T00:33:10.498Z,89.30
2017-12-04T00:35:38.354Z,89.20
2017-12-04T00:38:06.004Z,89.20
2017-12-04T00:40:33.657Z,89.20
2017-12-04T00:43:01.287Z,88.70
2017-12-04T00:45:28.947Z,89.20
2017-12-04T00:47:56.602Z,89.80
2017-12-04T00:50:24.217Z,89.80
2017-12-04T00:52:51.863Z,90.00
2017-12-04T00:55:19.491Z,89.80
2017-12-04T00:57:47.131Z,89.20
2017-12-04T01:00:15.550Z,88.80
2017-12-04T01:02:43.171Z,88.70
2017-12-04T01:05:11.606Z,89.40
2017-12-04T01:07:39.225Z,89.30
2017-12-04T01:10:07.651Z,90.00
2017-12-04T01:12:35.310Z,90.00
2017-12-04T01:15:02.948Z,89.30
2017-12-04T01:17:30.632Z,88.90
2017-12-04T01:19:58.253Z,88.90
2017-12-04T01:22:26.659Z,90.20
2017-12-04T01:24:54.300Z,90.20
2017-12-04T01:27:21.954Z,89.80
2017-12-04T01:29:49.599Z,90.40
2017-12-04T01:32:18.036Z,90.20
2017-12-04T01:34:45.702Z,90.20
2017-12-04T01:37:13.367Z,90.10
2017-12-04T01:39:40.996Z,89.90
2017-12-04T01:42:08.616Z,90.00
2017-12-04T01:44:36.211Z,90.50
2017-12-04T01:47:03.859Z,90.30
2017-12-04T01:49:32.282Z,90.40
2017-12-04T01:51:59.921Z,90.40
2017-12-04T01:54:27.634Z,90.30
2017-12-04T01:56:56.060Z,90.50
2017-12-04T01:59:23.702Z,90.50
2017-12-04T02:01:52.102Z,90.40
2017-12-04T02:04:19.747Z,90.30
2017-12-04T02:06:48.139Z,90.40
2017-12-04T02:09:15.781Z,90.40
2017-12-04T02:11:44.165Z,90.70
2017-12-04T02:14:12.579Z,90.60
2017-12-04T02:16:40.201Z,90.60
2017-12-04T02:19:08.580Z,90.30
2017-12-04T02:21:36.923Z,90.10
2017-12-04T02:24:04.576Z,90.10
2017-12-04T02:26:32.224Z,90.40
2017-12-04T02:28:59.852Z,90.30
2017-12-04T02:31:28.233Z,90.40
2017-12-04T02:33:55.861Z,90.40
2017-12-04T02:36:24.235Z,90.70
2017-12-04T02:38:51.869Z,90.60
2017-12-04T02:41:19.471Z,90.30
2017-12-04T02:43:47.103Z,90.40
2017-12-04T02:46:14.707Z,90.40
2017-12-04T02:48:43.116Z,90.40
2017-12-04T02:51:10.722Z,90.40
2017-12-04T02:53:38.360Z,90.70
2017-12-04T02:56:05.952Z,90.80
2017-12-04T02:58:34.365Z,90.60
2017-12-04T03:01:01.982Z,90.60
2017-12-04T03:03:29.616Z,90.80
2017-12-04T03:05:57.263Z,90.70
2017-12-04T03:08:24.890Z,90.10
2017-12-04T03:10:53.414Z,89.10
2017-12-04T03:13:21.062Z,89.10
2017-12-04T03:15:48.713Z,90.00
2017-12-04T03:18:17.151Z,89.20
2017-12-04T03:20:44.764Z,89.20
2017-12-04T03:23:12.385Z,88.30
2017-12-04T03:25:39.982Z,88.70
2017-12-04T03:28:07.604Z,89.40
2017-12-04T03:30:35.274Z,90.00
2017-12-04T03:33:03.733Z,90.50
2017-12-04T03:35:31.366Z,90.50
2017-12-04T03:37:59.089Z,90.40
2017-12-04T03:40:27.456Z,90.80
2017-12-04T03:42:55.070Z,90.70
2017-12-04T03:45:22.789Z,90.80
2017-12-04T03:47:51.255Z,90.70
2017-12-04T03:50:18.869Z,90.70
2017-12-04T03:52:46.490Z,90.50
2017-12-04T03:55:14.887Z,90.00
2017-12-04T03:57:43.294Z,90.50
2017-12-04T04:00:10.933Z,90.50
2017-12-04T04:02:39.775Z,89.40
2017-12-04T04:05:07.390Z,90.10
2017-12-04T04:07:35.016Z,89.40
2017-12-04T04:10:02.648Z,90.30
2017-12-04T04:12:30.290Z,90.30
2017-12-04T04:14:57.935Z,90.60
2017-12-04T04:17:25.579Z,90.20
2017-12-04T04:19:53.966Z,89.90
2017-12-04T04:22:22.354Z,90.10
2017-12-04T04:24:49.999Z,90.00
2017-12-04T04:27:18.408Z,89.10
2017-12-04T04:29:46.035Z,89.10
2017-12-04T04:32:13.715Z,89.00
2017-12-04T04:34:41.390Z,89.60
2017-12-04T04:37:09.070Z,90.30
2017-12-04T04:39:36.701Z,90.00
2017-12-04T04:42:04.340Z,90.30
2017-12-04T04:44:32.734Z,90.50
2017-12-04T04:47:01.145Z,90.20
2017-12-04T04:49:28.792Z,90.20
2017-12-04T04:51:56.404Z,90.00
2017-12-04T04:54:24.021Z,90.40
2017-12-04T04:56:51.650Z,90.30
2017-12-04T04:59:20.118Z,90.10
2017-12-04T05:01:47.733Z,90.00
2017-12-04T05:04:15.369Z,90.20
2017-12-04T05:06:42.984Z,90.40
2017-12-04T05:09:10.664Z,90.10
2017-12-04T05:11:38.285Z,90.00
2017-12-04T05:14:05.915Z,90.00
2017-12-04T05:16:33.537Z,90.30
2017-12-04T05:19:01.130Z,90.50
2017-12-04T05:21:28.786Z,90.40
2017-12-04T05:23:56.407Z,90.50
2017-12-04T05:26:24.066Z,90.20
2017-12-04T05:28:51.687Z,90.30
2017-12-04T05:31:19.331Z,90.30
2017-12-04T05:33:47.725Z,90.10
2017-12-04T05:36:15.356Z,90.10
2017-12-04T05:38:42.957Z,90.20
2017-12-04T05:41:10.572Z,90.10
2017-12-04T05:43:38.223Z,89.20
2017-12-04T05:46:05.841Z,89.80
2017-12-04T05:48:33.486Z,90.10
2017-12-04T05:51:01.119Z,90.10
2017-12-04T05:53:28.746Z,90.10
2017-12-04T05:55:57.127Z,90.60
2017-12-04T05:58:24.765Z,90.60
2017-12-04T06:00:52.452Z,90.30
2017-12-04T06:03:20.109Z,89.90
2017-12-04T06:05:47.755Z,90.20
2017-12-04T06:08:15.384Z,90.50
2017-12-04T06:10:43.817Z,90.40
2017-12-04T06:13:11.440Z,90.40
2017-12-04T06:15:39.867Z,90.30
2017-12-04T06:18:07.489Z,90.30
2017-12-04T06:20:35.086Z,90.30
2017-12-04T06:23:02.707Z,90.40
2017-12-04T06:25:30.358Z,90.50
2017-12-04T06:27:57.962Z,90.40
2017-12-04T06:30:25.675Z,90.90
2017-12-04T06:32:53.238Z,91.10
2017-12-04T06:35:21.635Z,91.00
2017-12-04T06:37:49.263Z,91.00
2017-12-04T06:40:17.685Z,91.10
2017-12-04T06:42:45.321Z,91.10
2017-12-04T06:45:13.735Z,91.00
2017-12-04T06:47:41.357Z,91.00
2017-12-04T06:50:09.746Z,90.90
2017-12-04T06:52:38.154Z,91.10
2017-12-04T06:55:05.767Z,91.00
2017-12-04T06:57:33.408Z,91.30
2017-12-04T07:00:01.021Z,91.80
2017-12-04T07:02:28.672Z,91.70
2017-12-04T07:04:56.297Z,91.20
2017-12-04T07:07:24.018Z,90.80
2017-12-04T07:09:51.663Z,90.90
2017-12-04T07:12:19.394Z,91.30
2017-12-04T07:14:47.008Z,91.20
2017-12-04T07:17:14.653Z,91.60
2017-12-04T07:19:42.281Z,91.20
2017-12-04T07:22:09.881Z,90.90
2017-12-04T07:24:37.628Z,91.20
2017-12-04T07:27:06.070Z,91.10
2017-12-04T07:29:33.650Z,91.10
2017-12-04T07:32:01.332Z,90.90
2017-12-04T07:34:29.718Z,90.90
2017-12-04T07:36:57.370Z,90.90
2017-12-04T07:39:25.743Z,91.00
2017-12-04T07:41:54.188Z,90.90
2017-12-04T07:44:22.701Z,90.40
2017-12-04T07:46:51.123Z,91.20
2017-12-04T07:49:18.742Z,91.20
2017-12-04T07:51:47.178Z,90.60
2017-12-04T07:54:15.555Z,90.70
2017-12-04T07:56:43.308Z,90.60
2017-12-04T07:59:10.909Z,90.70
2017-12-04T08:01:38.521Z,90.70
2017-12-04T08:04:06.158Z,90.60
2017-12-04T08:06:34.559Z,91.00
2017-12-04T08:09:02.171Z,91.00
2017-12-04T08:11:29.894Z,90.80
2017-12-04T08:13:57.501Z,90.00
2017-12-04T08:16:25.117Z,90.10
2017-12-04T08:18:52.746Z,90.20
2017-12-04T08:21:21.218Z,89.60
2017-12-04T08:23:49.730Z,89.60
2017-12-04T08:26:17.334Z,89.50
2017-12-04T08:28:44.983Z,89.30
2017-12-04T08:31:12.595Z,88.80
2017-12-04T08:33:41.017Z,88.80
2017-12-04T08:36:08.650Z,88.70
2017-12-04T08:38:36.299Z,88.00
2017-12-04T08:41:06.974Z,87.80
2017-12-04T08:43:35.530Z,87.80
2017-12-04T08:46:03.162Z,87.90
2017-12-04T08:48:31.537Z,89.20
2017-12-04T08:50:59.942Z,88.90
2017-12-04T08:53:27.601Z,88.90
2017-12-04T08:55:55.261Z,89.60
2017-12-04T08:58:23.639Z,90.30
2017-12-04T09:00:52.039Z,90.50
2017-12-04T09:03:19.666Z,90.50
2017-12-04T09:05:48.072Z,90.50
2017-12-04T09:08:15.678Z,90.50
2017-12-04T09:10:43.355Z,90.30
2017-12-04T09:13:10.982Z,90.30
2017-12-04T09:15:38.581Z,90.40
2017-12-04T09:18:07.015Z,90.30
2017-12-04T09:20:34.618Z,90.30
2017-12-04T09:23:02.228Z,90.30
2017-12-04T09:25:29.868Z,90.20
2017-12-04T09:27:57.541Z,90.50
2017-12-04T09:30:25.146Z,90.20
2017-12-04T09:32:52.869Z,90.80
2017-12-04T09:35:20.526Z,90.80
2017-12-04T09:37:48.202Z,90.70
2017-12-04T09:40:15.807Z,90.80
2017-12-04T09:42:43.426Z,90.60
2017-12-04T09:45:11.061Z,90.70
2017-12-04T09:47:38.681Z,90.80
2017-12-04T09:50:06.322Z,91.10
2017-12-04T09:52:34.024Z,91.00
2017-12-04T09:55:02.425Z,91.30
2017-12-04T09:57:30.804Z,91.10
2017-12-04T09:59:59.190Z,91.40
2017-12-04T10:02:26.810Z,91.40
2017-12-04T10:04:54.443Z,91.40
2017-12-04T10:07:22.064Z,91.30
2017-12-04T10:09:49.714Z,91.10
2017-12-04T10:12:17.354Z,91.50
2017-12-04T10:14:44.980Z,91.60
2017-12-04T10:17:12.577Z,91.60
2017-12-04T10:19:40.205Z,91.30
2017-12-04T10:22:07.841Z,91.30
2017-12-04T10:24:35.490Z,91.00
2017-12-04T10:27:03.862Z,91.10
2017-12-04T10:29:32.247Z,91.20
2017-12-04T10:32:00.719Z,91.30
2017-12-04T10:34:29.104Z,91.00
2017-12-04T10:36:57.504Z,91.20
2017-12-04T10:39:25.100Z,91.20
2017-12-04T10:41:53.568Z,91.40
2017-12-04T10:44:21.207Z,91.40
2017-12-04T10:46:48.854Z,91.20
2017-12-04T10:49:17.222Z,91.40
2017-12-04T10:51:44.881Z,91.40
2017-12-04T10:54:12.489Z,91.40
2017-12-04T10:56:40.087Z,91.20
2017-12-04T10:59:07.687Z,91.50
2017-12-04T11:01:35.297Z,91.80
2017-12-04T11:04:02.914Z,91.80
2017-12-04T11:06:30.573Z,91.60
2017-12-04T11:08:58.232Z,91.70
2017-12-04T11:11:25.878Z,92.00
2017-12-04T11:13:54.243Z,92.00
2017-12-04T11:16:21.905Z,92.00
2017-12-04T11:18:49.539Z,91.70
2017-12-04T11:21:17.897Z,91.50
2017-12-04T11:23:45.525Z,91.40
2017-12-04T11:26:13.917Z,91.50
2017-12-04T11:28:41.553Z,91.50
2017-12-04T11:31:09.990Z,91.70
2017-12-04T11:33:37.611Z,91.70
2017-12-04T11:36:05.998Z,92.10
2017-12-04T11:38:33.617Z,92.10
2017-12-04T11:41:01.254Z,91.70
2017-12-04T11:43:28.896Z,91.80
2017-12-04T11:45:56.511Z,91.90
2017-12-04T11:48:24.147Z,92.10
2017-12-04T11:50:51.800Z,92.00
2017-12-04T11:53:19.492Z,91.90
2017-12-04T11:55:47.226Z,91.90
2017-12-04T11:58:14.948Z,91.80
2017-12-04T12:00:43.332Z,92.00
2017-12-04T12:03:10.961Z,92.00
2017-12-04T12:05:38.581Z,91.50
2017-12-04T12:08:06.206Z,91.90
2017-12-04T12:10:34.588Z,91.60
2017-12-04T12:13:02.979Z,91.70
2017-12-04T12:15:30.631Z,91.70
2017-12-04T12:17:58.277Z,91.60
2017-12-04T12:20:26.614Z,91.40
2017-12-04T12:22:54.260Z,91.40
2017-12-04T12:25:21.887Z,91.50
2017-12-04T12:27:50.349Z,91.90
2017-12-04T12:30:17.958Z,91.80
2017-12-04T12:32:45.604Z,91.70
2017-12-04T12:35:13.230Z,92.00
2017-12-04T12:37:40.898Z,91.90
2017-12-04T12:40:08.522Z,91.70
2017-12-04T12:42:36.125Z,91.60
2017-12-04T12:45:03.737Z,91.80
2017-12-04T12:47:32.179Z,92.40
2017-12-04T12:49:59.850Z,92.40
2017-12-04T12:52:27.515Z,92.20
2017-12-04T12:54:55.138Z,92.40
2017-12-04T12:57:22.756Z,92.70
2017-12-04T12:59:50.468Z,92.60
2017-12-04T13:02:18.058Z,92.30
2017-12-04T13:04:46.425Z,92.10
2017-12-04T13:07:14.141Z,92.00
2017-12-04T13:09:42.519Z,92.40
2017-12-04T13:12:10.158Z,92.40
2017-12-04T13:14:37.794Z,92.20
2017-12-04T13:17:06.203Z,92.20
2017-12-04T13:19:33.886Z,92.20
2017-12-04T13:22:02.205Z,92.40
2017-12-04T13:24:29.934Z,92.20
2017-12-04T13:26:57.578Z,91.80
2017-12-04T13:29:25.209Z,92.00
2017-12-04T13:32:12.363Z,92.10
2017-12-04T13:34:51.858Z,92.10
2017-12-04T13:37:21.016Z,92.30
2017-12-04T13:39:48.622Z,92.30
2017-12-04T13:42:17.008Z,92.50
2017-12-04T13:44:44.633Z,92.50
2017-12-04T13:47:12.361Z,92.70
2017-12-04T13:49:39.990Z,92.30
2017-12-04T13:52:07.624Z,92.70
2017-12-04T13:54:35.245Z,92.40
2017-12-04T13:57:02.873Z,92.40
2017-12-04T13:59:31.278Z,91.80
2017-12-04T14:01:58.906Z,91.80
2017-12-04T14:04:27.302Z,91.90
2017-12-04T14:06:54.938Z,91.90
2017-12-04T14:09:23.321Z,92.00
2017-12-04T14:11:51.714Z,91.90
2017-12-04T14:14:19.341Z,91.90
2017-12-04T14:16:47.015Z,92.20
2017-12-04T14:19:15.415Z,92.30
2017-12-04T14:21:43.064Z,92.30
2017-12-04T14:24:11.430Z,92.30
2017-12-04T14:26:39.101Z,92.30
2017-12-04T14:29:07.496Z,92.90
2017-12-04T14:31:35.885Z,92.10
2017-12-04T14:34:03.505Z,92.10
2017-12-04T14:36:31.126Z,92.20
2017-12-04T14:38:58.826Z,92.20
2017-12-04T14:41:26.444Z,91.90
2017-12-04T14:43:54.071Z,92.00
2017-12-04T14:46:22.552Z,92.20
2017-12-04T14:48:50.175Z,92.20
2017-12-04T14:51:17.789Z,92.40
2017-12-04T14:53:45.416Z,92.60
2017-12-04T14:56:13.032Z,92.60
2017-12-04T14:58:40.677Z,92.80
2017-12-04T15:01:08.307Z,92.80
2017-12-04T15:03:35.917Z,92.80
2017-12-04T15:06:03.590Z,92.90
2017-12-04T15:08:31.234Z,92.70
2017-12-04T15:10:58.845Z,92.70
2017-12-04T15:13:26.467Z,92.70
2017-12-04T15:15:54.055Z,92.40
2017-12-04T15:18:22.395Z,92.40
2017-12-04T15:20:50.065Z,92.40
2017-12-04T15:23:17.663Z,92.50
2017-12-04T15:25:45.340Z,92.60
2017-12-04T15:28:13.782Z,92.40
2017-12-04T15:30:41.413Z,92.40
2017-12-04T15:33:09.022Z,92.50
2017-12-04T15:35:36.709Z,92.60
2017-12-04T15:38:05.132Z,92.80
2017-12-04T15:40:32.751Z,92.70
2017-12-04T15:43:01.112Z,93.30
2017-12-04T15:45:28.736Z,93.30
2017-12-04T15:47:56.334Z,93.50
2017-12-04T15:50:23.943Z,93.60
2017-12-04T15:52:51.566Z,93.70
2017-12-04T15:55:19.165Z,94.00
2017-12-04T15:57:46.781Z,94.20
2017-12-04T16:00:14.379Z,94.30
2017-12-04T16:02:41.993Z,94.40
2017-12-04T16:05:09.607Z,94.60
2017-12-04T16:07:37.420Z,94.40
2017-12-04T16:10:05.040Z,94.50
2017-12-04T16:12:32.687Z,94.60
2017-12-04T16:15:00.286Z,94.70
2017-12-04T16:17:27.895Z,94.90
2017-12-04T16:19:56.284Z,94.90
2017-12-04T16:22:24.687Z,94.90
2017-12-04T16:24:52.315Z,94.90
2017-12-04T16:27:20.713Z,94.90
2017-12-04T16:29:48.318Z,94.90
2017-12-04T16:32:15.946Z,94.70
2017-12-04T16:34:43.562Z,94.70
2017-12-04T16:37:11.185Z,94.80
2017-12-04T16:39:38.814Z,94.90
2017-12-04T16:42:06.438Z,95.00
2017-12-04T16:44:34.063Z,94.60
2017-12-04T16:47:01.667Z,94.60
2017-12-04T16:49:29.305Z,94.70
2017-12-04T16:51:57.014Z,94.60
2017-12-04T16:54:24.653Z,94.60
2017-12-04T16:56:52.257Z,94.80
2017-12-04T16:59:19.894Z,94.60
2017-12-04T17:01:48.270Z,94.40
2017-12-04T17:04:16.657Z,94.20
2017-12-04T17:06:45.030Z,94.10
2017-12-04T17:09:13.464Z,93.90
2017-12-04T17:11:41.067Z,93.90
2017-12-04T17:14:09.440Z,93.70
2017-12-04T17:16:37.861Z,93.80
2017-12-04T17:19:05.454Z,93.70
2017-12-04T17:21:33.107Z,93.60
2017-12-04T17:24:00.733Z,93.80
2017-12-04T17:26:28.350Z,93.50
2017-12-04T17:28:55.978Z,93.50
2017-12-04T17:31:23.697Z,93.80
2017-12-04T17:33:52.097Z,93.90
2017-12-04T17:36:19.742Z,93.80
2017-12-04T17:38:48.163Z,93.90
2017-12-04T17:41:15.792Z,93.90
2017-12-04T17:43:43.388Z,94.30
2017-12-04T17:46:11.022Z,94.30
2017-12-04T17:48:38.671Z,94.30
2017-12-04T17:51:07.079Z,94.40
2017-12-04T17:53:34.702Z,94.40
2017-12-04T17:56:03.147Z,94.20
2017-12-04T17:58:30.806Z,94.20
2017-12-04T18:00:58.419Z,94.10
2017-12-04T18:03:27.617Z,94.00
2017-12-04T18:05:55.220Z,93.90
2017-12-04T18:08:22.843Z,93.90
2017-12-04T18:10:50.442Z,94.00
2017-12-04T18:13:18.108Z,94.20
2017-12-04T18:15:45.730Z,94.50
2017-12-04T18:18:13.359Z,94.40
2017-12-04T18:20:40.980Z,94.40
2017-12-04T18:23:08.651Z,94.50
2017-12-04T18:25:36.248Z,94.40
2017-12-04T18:28:03.962Z,94.60
2017-12-04T18:30:31.597Z,94.60
2017-12-04T18:32:59.244Z,94.40
2017-12-04T18:35:27.668Z,94.70
2017-12-04T18:37:55.316Z,94.70
2017-12-04T18:40:22.904Z,95.00
2017-12-04T18:42:50.539Z,94.80
2017-12-04T18:45:18.157Z,94.60
2017-12-04T18:47:45.772Z,94.70
2017-12-04T18:50:13.405Z,94.80
2017-12-04T18:52:41.070Z,94.80
2017-12-04T18:55:08.698Z,94.80
2017-12-04T18:57:36.299Z,94.80
2017-12-04T19:00:03.982Z,94.60
2017-12-04T19:02:31.590Z,94.70
2017-12-04T19:04:59.974Z,94.60
2017-12-04T19:07:28.374Z,94.70
2017-12-04T19:09:55.993Z,94.60
2017-12-04T19:12:23.613Z,94.80
2017-12-04T19:14:51.243Z,94.50
2017-12-04T19:17:19.709Z,94.90
2017-12-04T19:19:48.099Z,94.90
2017-12-04T19:22:16.486Z,94.60
2017-12-04T19:24:44.159Z,94.60
2017-12-04T19:27:11.787Z,94.70
2017-12-04T19:29:39.398Z,94.60
2017-12-04T19:32:07.130Z,94.50
2017-12-04T19:34:34.791Z,94.60
2017-12-04T19:37:03.200Z,94.40
2017-12-04T19:39:30.832Z,94.40
2017-12-04T19:41:59.295Z,94.60
2017-12-04T19:44:27.816Z,94.60
2017-12-04T19:46:55.455Z,94.50
2017-12-04T19:49:23.927Z,94.80
2017-12-04T19:51:51.567Z,94.80
2017-12-04T19:54:19.243Z,94.70
2017-12-04T19:56:46.864Z,94.70
2017-12-04T19:59:14.474Z,94.50
2017-12-04T20:01:42.215Z,94.40
2017-12-04T20:04:09.851Z,94.60
2017-12-04T20:06:37.498Z,94.70
2017-12-04T20:09:05.114Z,94.90
2017-12-04T20:11:32.759Z,94.80
2017-12-04T20:14:00.341Z,94.70
2017-12-04T20:16:28.767Z,94.70
2017-12-04T20:18:56.389Z,94.60
2017-12-04T20:21:24.808Z,94.80
2017-12-04T20:23:52.418Z,94.80
2017-12-04T20:26:20.091Z,94.50
2017-12-04T20:28:47.739Z,94.70
2017-12-04T20:31:15.430Z,94.80
2017-12-04T20:33:43.096Z,94.80
2017-12-04T20:36:10.701Z,94.80
2017-12-04T20:38:38.551Z,95.10
2017-12-04T20:41:06.152Z,95.20
2017-12-04T20:43:33.822Z,95.10
2017-12-04T20:46:02.311Z,94.90
2017-12-04T20:48:30.703Z,95.10
2017-12-04T20:50:58.459Z,95.10
2017-12-04T20:53:26.823Z,94.70
2017-12-04T20:55:54.445Z,94.60
2017-12-04T20:58:22.179Z,94.60
2017-12-04T21:00:49.798Z,94.70
2017-12-04T21:03:17.403Z,94.50
2017-12-04T21:05:45.111Z,94.50
2017-12-04T21:08:24.641Z,94.30
2017-12-04T21:11:04.180Z,94.40
2017-12-04T21:13:43.629Z,94.30
2017-12-04T21:16:23.053Z,94.40
2017-12-04T21:18:50.687Z,94.50
2017-12-04T21:21:18.365Z,94.30
2017-12-04T21:23:46.007Z,94.40
2017-12-04T21:26:13.635Z,94.40
2017-12-04T21:28:41.214Z,94.30
2017-12-04T21:31:09.630Z,94.40
2017-12-04T21:33:37.357Z,94.30
2017-12-04T21:36:05.049Z,94.40
2017-12-04T21:38:32.675Z,94.40
2017-12-04T21:41:00.303Z,94.50
2017-12-04T21:43:27.960Z,94.50
2017-12-04T21:45:55.629Z,94.40
2017-12-04T21:48:23.265Z,94.60
2017-12-04T21:50:50.926Z,94.60
2017-12-04T21:53:18.682Z,94.60
2017-12-04T21:55:46.307Z,94.50
2017-12-04T21:58:14.725Z,94.30
2017-12-04T22:00:42.402Z,94.30
2017-12-04T22:03:10.009Z,94.20
2017-12-04T22:05:38.415Z,94.30
2017-12-04T22:08:06.069Z,94.30
2017-12-04T22:10:33.690Z,94.10
2017-12-04T22:13:02.103Z,94.10
2017-12-04T22:15:30.482Z,94.00
2017-12-04T22:17:58.853Z,94.10
2017-12-04T22:20:26.538Z,94.10
2017-12-04T22:22:54.162Z,93.90
2017-12-04T22:25:21.882Z,93.90
2017-12-04T22:27:49.543Z,93.90
2017-12-04T22:30:17.275Z,93.80
2017-12-04T22:32:44.877Z,93.80
2017-12-04T22:35:12.559Z,93.70
2017-12-04T22:37:40.175Z,93.70
2017-12-04T22:40:07.760Z,93.50
2017-12-04T22:42:35.375Z,93.50
2017-12-04T22:45:03.040Z,93.50
2017-12-04T22:47:30.752Z,93.30
2017-12-04T22:49:58.383Z,93.40
2017-12-04T22:52:26.741Z,93.50
2017-12-04T22:54:55.122Z,93.20
2017-12-04T22:57:22.798Z,93.20
2017-12-04T22:59:50.410Z,93.10
2017-12-04T23:02:18.006Z,93.00
2017-12-04T23:04:45.704Z,92.90
2017-12-04T23:07:13.321Z,93.00
2017-12-04T23:09:40.971Z,93.10
2017-12-04T23:12:09.374Z,93.10
2017-12-04T23:14:37.855Z,93.20
2017-12-04T23:17:05.502Z,93.20
2017-12-04T23:19:33.865Z,93.00
2017-12-04T23:22:01.510Z,93.00
2017-12-04T23:24:29.153Z,92.90
2017-12-04T23:26:56.792Z,93.00
2017-12-04T23:29:24.413Z,92.90
2017-12-04T23:31:52.046Z,93.10
2017-12-04T23:34:19.651Z,93.20
2017-12-04T23:36:47.362Z,92.90
2017-12-04T23:39:14.935Z,93.10
2017-12-04T23:41:42.581Z,93.10
2017-12-04T23:44:10.194Z,93.20
2017-12-04T23:46:38.634Z,93.00
2017-12-04T23:49:06.246Z,93.00
2017-12-04T23:51:33.871Z,93.10
2017-12-04T23:54:01.498Z,92.90
2017-12-04T23:56:29.134Z,93.00
2017-12-04T23:58:57.548Z,92.90
